Terminal Aerodrome Forecast
Issued by NWS

Home | Current Version | Previous Version | Text Only | Print | Product List | Glossary On
Versions: 1 2 3 4 5 6 7 8 9 10 11 12 13 14 15 16 17 18 19 20 21 22 23 24
000
FTAK31 PANC 290535
TAFAGK
TAF
PAGK 290535Z 2906/3006 VRB02KT P6SM BKN200
     FM291400 VRB02KT P6SM -SN BKN060
     FM300000 00000KT 6SM -SN BKN030=

USA.gov is the U.S. government's official web portal to all federal, state and local government web resources and services.